createdAt,value
2019-03-28T00:01:41.651Z,18.35
2019-03-28T00:06:46.010Z,17.77
2019-03-28T00:11:50.405Z,12.28
2019-03-28T00:16:56.642Z,12.70
2019-03-28T00:22:00.999Z,14.33
2019-03-28T00:27:05.391Z,16.85
2019-03-28T00:32:10.160Z,16.82
2019-03-28T00:42:18.989Z,15.23
2019-03-28T00:52:28.435Z,16.82
2019-03-28T00:57:33.244Z,16.45
2019-03-28T01:02:39.506Z,17.27
2019-03-28T01:07:49.324Z,16.45
2019-03-28T01:12:54.124Z,15.98
2019-03-28T01:17:59.936Z,17.55
2019-03-28T01:23:04.397Z,17.73
2019-03-28T01:28:08.694Z,17.05
2019-03-28T01:33:13.164Z,14.93
2019-03-28T01:38:17.460Z,14.00
2019-03-28T01:43:21.886Z,17.27
2019-03-28T01:48:27.324Z,14.75
2019-03-28T01:53:55.086Z,18.52
2019-03-28T01:58:59.495Z,17.85
2019-03-28T02:04:03.840Z,17.60
2019-03-28T02:09:09.623Z,15.60
2019-03-28T02:14:14.023Z,16.52
2019-03-28T02:19:19.258Z,19.77
2019-03-28T02:24:26.196Z,18.85
2019-03-28T02:29:30.347Z,21.48
2019-03-28T02:34:36.048Z,17.87
2019-03-28T02:39:43.377Z,18.87
2019-03-28T02:44:48.591Z,25.92
2019-03-28T02:49:54.923Z,22.52
2019-03-28T02:54:59.581Z,19.30
2019-03-28T03:05:07.715Z,24.25
2019-03-28T03:10:19.865Z,19.92
2019-03-28T03:15:25.430Z,23.42
2019-03-28T03:20:31.609Z,20.45
2019-03-28T03:25:36.116Z,25.00
2019-03-28T03:30:40.601Z,21.85
2019-03-28T03:35:46.759Z,21.65
2019-03-28T03:40:51.427Z,25.92
2019-03-28T03:51:05.706Z,21.90
2019-03-28T03:56:10.324Z,21.60
2019-03-28T04:01:20.025Z,29.23
2019-03-28T04:06:24.432Z,24.45
2019-03-28T04:11:29.137Z,20.65
2019-03-28T04:21:39.660Z,26.77
2019-03-28T04:26:44.848Z,22.82
2019-03-28T04:31:50.943Z,23.40
2019-03-28T04:36:56.143Z,24.37
2019-03-28T04:42:00.559Z,26.90
2019-03-28T04:47:07.879Z,27.75
2019-03-28T04:52:13.536Z,28.45
2019-03-28T04:57:17.857Z,25.32
2019-03-28T05:02:22.491Z,27.15
2019-03-28T05:12:30.494Z,23.62
2019-03-28T05:17:35.520Z,26.20
2019-03-28T05:22:39.919Z,27.20
2019-03-28T05:27:45.307Z,26.75
2019-03-28T05:32:50.339Z,26.10
2019-03-28T05:37:54.616Z,28.23
2019-03-28T05:42:58.927Z,25.82
2019-03-28T05:48:06.034Z,35.33
2019-03-28T05:53:10.472Z,29.40
2019-03-28T05:58:15.142Z,26.90
2019-03-28T06:08:23.021Z,26.87
2019-03-28T06:18:30.950Z,25.48
2019-03-28T06:23:35.923Z,25.97
2019-03-28T06:28:42.238Z,31.97
2019-03-28T06:33:46.552Z,28.62
2019-03-28T06:38:51.247Z,22.70
2019-03-28T06:48:59.084Z,21.80
2019-03-28T06:54:04.420Z,23.55
2019-03-28T06:59:08.867Z,21.85
2019-03-28T07:04:13.441Z,24.90
2019-03-28T07:09:18.380Z,26.10
2019-03-28T07:14:25.630Z,24.90
2019-03-28T07:19:29.949Z,22.70
2019-03-28T07:24:34.715Z,22.27
2019-03-28T07:29:50.128Z,25.37
2019-03-28T07:34:45.673Z,22.05
2019-03-28T07:39:50.100Z,21.52
2019-03-28T07:44:55.285Z,18.57
2019-03-28T07:49:59.718Z,22.37
2019-03-28T07:55:05.073Z,19.50
2019-03-28T08:00:10.197Z,23.25
2019-03-28T08:05:15.207Z,26.15
2019-03-28T08:10:19.806Z,20.37
2019-03-28T08:20:29.102Z,18.50
2019-03-28T08:25:33.774Z,16.97
2019-03-28T08:30:39.474Z,18.70
2019-03-28T08:35:45.940Z,17.40
2019-03-28T08:40:51.584Z,14.83
2019-03-28T08:45:56.372Z,15.95
2019-03-28T08:51:01.182Z,15.98
2019-03-28T09:01:09.612Z,15.58
2019-03-28T09:06:16.997Z,15.38
2019-03-28T09:11:21.600Z,14.00
2019-03-28T09:16:26.187Z,16.00
2019-03-28T09:21:33.451Z,12.95
2019-03-28T09:26:38.155Z,9.18
2019-03-28T09:31:42.739Z,11.38
2019-03-28T09:36:48.133Z,16.95
2019-03-28T09:41:52.560Z,13.90
2019-03-28T09:46:57.501Z,10.72
2019-03-28T09:52:02.268Z,8.03
2019-03-28T10:02:09.842Z,11.28
2019-03-28T10:07:14.259Z,11.80
2019-03-28T10:12:19.114Z,10.23
2019-03-28T10:17:23.531Z,12.07
2019-03-28T10:22:27.932Z,11.33
2019-03-28T10:27:32.367Z,12.70
2019-03-28T10:32:36.795Z,11.18
2019-03-28T10:37:41.106Z,6.67
2019-03-28T10:42:47.217Z,7.87
2019-03-28T10:47:51.548Z,6.90
2019-03-28T10:52:56.199Z,5.28
2019-03-28T10:58:00.619Z,4.42
2019-03-28T11:03:05.388Z,7.50
2019-03-28T11:08:10.227Z,5.10
2019-03-28T11:18:18.233Z,8.50
2019-03-28T11:28:26.602Z,8.83
2019-03-28T11:33:31.105Z,9.30
2019-03-28T11:38:35.542Z,12.18
2019-03-28T11:43:40.299Z,12.15
2019-03-28T11:48:45.391Z,9.55
2019-03-28T11:53:49.980Z,9.70
2019-03-28T11:58:54.435Z,11.08
2019-03-28T12:03:59.644Z,11.75
2019-03-28T12:09:05.217Z,7.72
2019-03-28T12:14:10.011Z,7.55
2019-03-28T12:24:18.079Z,6.85
2019-03-28T12:29:23.792Z,6.80
2019-03-28T12:34:28.770Z,8.00
2019-03-28T12:39:33.180Z,8.58
2019-03-28T12:44:37.474Z,8.33
2019-03-28T12:49:42.058Z,6.90
2019-03-28T12:54:46.458Z,6.97
2019-03-28T12:59:53.618Z,17.98
2019-03-28T13:04:57.788Z,7.53
2019-03-28T13:10:02.319Z,8.20
2019-03-28T13:20:11.819Z,10.43
2019-03-28T13:25:16.190Z,7.92
2019-03-28T13:30:20.557Z,8.98
2019-03-28T13:35:24.850Z,9.20
2019-03-28T13:40:29.207Z,8.70
2019-03-28T13:45:33.785Z,8.15
2019-03-28T13:50:38.115Z,8.15
2019-03-28T13:55:43.094Z,6.25
2019-03-28T14:00:47.677Z,11.00
2019-03-28T14:05:52.017Z,6.40
2019-03-28T14:10:56.317Z,6.40
2019-03-28T14:16:00.878Z,7.10
2019-03-28T14:21:05.128Z,11.15
2019-03-28T14:26:09.463Z,9.08
2019-03-28T14:31:13.806Z,8.10
2019-03-28T14:36:18.177Z,13.40
2019-03-28T14:41:22.668Z,6.40
2019-03-28T14:51:30.375Z,7.65
2019-03-28T14:56:34.724Z,9.40
2019-03-28T15:01:40.044Z,8.28
2019-03-28T15:06:44.715Z,8.18
2019-03-28T15:16:54.462Z,6.53
2019-03-28T15:21:59.096Z,6.92
2019-03-28T15:27:03.524Z,10.80
2019-03-28T15:32:08.275Z,5.90
2019-03-28T15:37:12.633Z,5.90
2019-03-28T15:42:17.217Z,5.97
2019-03-28T15:47:21.898Z,6.15
2019-03-28T15:52:27.744Z,7.42
2019-03-28T15:57:32.520Z,7.15
2019-03-28T16:02:37.172Z,7.53
2019-03-28T16:07:41.544Z,10.32
2019-03-28T16:12:45.900Z,7.65
2019-03-28T16:17:51.727Z,8.40
2019-03-28T16:22:56.042Z,9.63
2019-03-28T16:28:00.845Z,7.90
2019-03-28T16:38:08.693Z,8.45
2019-03-28T16:43:14.854Z,7.65
2019-03-28T16:48:19.595Z,12.65
2019-03-28T16:58:27.446Z,9.75
2019-03-28T17:03:31.703Z,8.83
2019-03-28T17:08:36.040Z,11.97
2019-03-28T17:13:40.409Z,8.40
2019-03-28T17:18:45.814Z,8.45
2019-03-28T17:23:50.635Z,9.70
2019-03-28T17:28:54.924Z,8.48
2019-03-28T17:33:59.246Z,7.08
2019-03-28T17:39:06.213Z,7.47
2019-03-28T17:44:14.232Z,13.48
2019-03-28T17:49:17.558Z,7.12
2019-03-28T17:54:21.901Z,11.80
2019-03-28T17:59:27.333Z,6.42
2019-03-28T18:04:32.505Z,6.05
2019-03-28T18:09:37.790Z,7.40
2019-03-28T18:14:42.393Z,7.47
2019-03-28T18:19:46.811Z,9.40
2019-03-28T18:24:51.490Z,9.45
2019-03-28T18:29:55.787Z,6.10
2019-03-28T18:35:05.671Z,6.85
2019-03-28T18:40:09.186Z,13.13
2019-03-28T18:45:13.545Z,6.60
2019-03-28T18:50:17.857Z,7.15
2019-03-28T18:55:22.411Z,9.00
2019-03-28T19:00:27.373Z,7.15
2019-03-28T19:05:31.756Z,9.13
2019-03-28T19:10:36.169Z,14.15
2019-03-28T19:15:42.912Z,9.50
2019-03-28T19:20:47.697Z,10.85
2019-03-28T19:30:55.390Z,11.57
2019-03-28T19:36:01.454Z,14.03
2019-03-28T19:41:07.082Z,9.83
2019-03-28T19:46:11.501Z,10.90
2019-03-28T19:51:16.571Z,10.43
2019-03-28T19:56:21.554Z,32.70
2019-03-28T20:01:25.961Z,14.28
2019-03-28T20:06:30.818Z,27.52
2019-03-28T20:16:38.560Z,34.23
2019-03-28T20:21:42.917Z,22.60
2019-03-28T20:26:47.377Z,20.48
2019-03-28T20:31:52.287Z,9.83
2019-03-28T20:36:58.191Z,8.73
2019-03-28T20:42:02.827Z,10.78
2019-03-28T20:47:07.294Z,10.68
2019-03-28T20:52:12.253Z,10.00
2019-03-28T20:57:16.546Z,11.20
2019-03-28T21:02:21.126Z,9.05
2019-03-28T21:07:25.511Z,12.75
2019-03-28T21:12:29.945Z,10.43
2019-03-28T21:17:34.586Z,9.93
2019-03-28T21:22:39.035Z,9.65
2019-03-28T21:27:43.447Z,10.38
2019-03-28T21:32:55.185Z,15.63
2019-03-28T21:37:54.006Z,10.28
2019-03-28T21:42:58.671Z,13.10
2019-03-28T21:53:07.715Z,12.68
2019-03-28T21:58:12.247Z,12.23
2019-03-28T22:03:16.990Z,14.05
2019-03-28T22:08:21.620Z,11.80
2019-03-28T22:13:29.946Z,12.82
2019-03-28T22:18:34.702Z,12.63
2019-03-28T22:28:42.878Z,12.45
2019-03-28T22:33:47.587Z,11.60
2019-03-28T22:38:53.427Z,13.68
2019-03-28T22:43:58.804Z,13.18
2019-03-28T22:49:03.322Z,15.25
2019-03-28T22:54:07.648Z,16.12
2019-03-28T22:59:12.005Z,19.05
2019-03-28T23:04:16.359Z,14.55
2019-03-28T23:09:20.740Z,15.15
2019-03-28T23:14:25.393Z,14.13
2019-03-28T23:24:33.156Z,19.62
2019-03-28T23:29:38.170Z,14.03
2019-03-28T23:34:42.515Z,14.50
2019-03-28T23:39:47.159Z,13.00
2019-03-28T23:44:55.235Z,16.40
2019-03-28T23:49:59.797Z,15.90
2019-03-28T23:55:05.428Z,16.52
